メインページ
METAR-TAF:

METAR-TAF

空港 :

キリマンジャロ国際空港

キリマンジャロ, タンザニア

緯度: 03-25S, 経度: 037-04E, 海抜: 891m

現時点の気象観測

当レポートは44分前の15:00(UTC)に作成
無風
気温 24°C
湿度 74%
気圧 1014 hPa
視程10km以上
高度2600ftの雲は散在している
高度8000ftの千切れ雲あり

METAR: HTKJ 201500Z 00000KT 9999 SCT026 BKN080 24/19 Q1014 NOSIG

時間: 18:44 (15:44 UTC)

予報

当レポートは4時間44分前の11:00(UTC)に作成
予報は20日の 12時(UTC)から 21日の 12時(UTC)まで有効
東/南東の風 5kt
視程10km以上
高度3000ftの千切れ雲あり
20日の 15時(UTC)から 20日の 18時(UTC)まで徐々に
高度2800ftの雲は散在している

TAF: HTKJ 201100Z 2012/2112 12005KT 9999 BKN030 BECMG 2015/2018 SCT028

4,000以上の空港の気象観測と天気予報(METAR報とTAF報)

利用可能な観測所は地図上に黄色い丸と赤い丸で示す。

丸の上にカーソルを重ねると観測所名を参照できる。

次にクリックすると気象観測と天気予報を参照できる。

マップの切り替え:黒色「×」印の緑ボタンをクリックして拡大、「-」印の緑ボタンをクリックして縮小、緑色の三角印をクリックして隣りの地図に切り替え


METAR-TAF: